Time;durP1;ratioP1;P1;durP2;ratioP2;P2;SDS_P1;SDS_P2;PMS_P1;PMS_P2;Temp;Humidity;BMP_temperature;BMP_pressure;BME280_temperature;BME280_humidity;BME280_pressure;Samples;Min_cycle;Max_cycle;Signal;HPM_P1;HPM_P2
2021/10/02 00:31:27;;;;;;;17.35;13.32;;;13.30;99.90;;;;;;5074429;28;20048;-70
2021/10/02 00:47:02;;;;;;;21.75;14.77;;;13.30;99.90;;;;;;5074354;28;20060;-70
2021/10/02 00:49:27;;;;;;;20.38;14.77;;;13.30;99.90;;;;;;5075274;28;20413;-70
2021/10/02 00:51:53;;;;;;;20.08;14.57;;;13.30;99.90;;;;;;5074036;28;20040;-70
2021/10/02 00:54:19;;;;;;;21.77;14.55;;;13.30;99.90;;;;;;5074453;28;20127;-70
2021/10/02 00:56:44;;;;;;;17.50;14.00;;;13.30;99.90;;;;;;5075328;28;20052;-70
2021/10/02 00:59:10;;;;;;;19.90;14.60;;;13.30;99.90;;;;;;5074931;28;20049;-70
2021/10/02 01:01:54;;;;;;;19.02;14.65;;;13.40;99.90;;;;;;5075554;28;20075;-71
2021/10/02 01:04:39;;;;;;;18.38;14.82;;;13.40;99.90;;;;;;5075671;28;20376;-70
2021/10/02 01:07:30;;;;;;;20.15;15.00;;;13.40;99.90;;;;;;5075270;28;20131;-70
2021/10/02 01:10:10;;;;;;;20.20;13.88;;;13.40;99.90;;;;;;5074961;28;20423;-70
2021/10/02 01:12:42;;;;;;;19.45;14.45;;;13.40;99.90;;;;;;5075445;28;20066;-70
2021/10/02 01:15:21;;;;;;;19.02;14.65;;;13.40;99.90;;;;;;5073559;28;20040;-70
2021/10/02 01:17:54;;;;;;;21.00;15.77;;;13.40;99.90;;;;;;5074792;28;20102;-70
2021/10/02 01:20:43;;;;;;;19.27;14.35;;;13.30;99.90;;;;;;5074816;28;20405;-70
2021/10/02 01:23:18;;;;;;;19.80;15.98;;;13.40;99.90;;;;;;5075084;28;20036;-70
2021/10/02 01:25:56;;;;;;;21.52;15.40;;;13.40;99.90;;;;;;5073243;28;20050;-70
2021/10/02 01:28:23;;;;;;;21.33;15.80;;;13.30;99.90;;;;;;5073999;28;20086;-71
2021/10/02 01:31:00;;;;;;;23.15;16.38;;;13.30;99.90;;;;;;5074486;28;20033;-70
2021/10/02 01:33:45;;;;;;;20.95;16.33;;;13.40;99.90;;;;;;5075324;28;20036;-70
2021/10/02 01:47:24;;;;;;;25.88;16.20;;;13.30;99.90;;;;;;5074390;28;20049;-71
2021/10/02 01:49:55;;;;;;;23.05;15.80;;;13.30;99.90;;;;;;5073959;28;20048;-70
2021/10/02 01:52:26;;;;;;;23.08;16.15;;;13.30;99.90;;;;;;5073166;28;20051;-71
2021/10/02 01:54:55;;;;;;;20.67;15.52;;;13.30;99.90;;;;;;5073270;28;20044;-71
2021/10/02 01:57:27;;;;;;;21.77;15.65;;;13.40;99.90;;;;;;5074359;28;20105;-71
2021/10/02 01:59:55;;;;;;;21.50;15.65;;;13.40;99.90;;;;;;5074213;28;20047;-70
2021/10/02 02:02:24;;;;;;;21.67;15.20;;;13.40;99.90;;;;;;5073842;28;20447;-71
2021/10/02 02:04:52;;;;;;;26.05;17.08;;;13.40;99.90;;;;;;5074246;28;20051;-70
2021/10/02 02:07:21;;;;;;;21.83;17.25;;;13.40;99.90;;;;;;5074058;28;20044;-71
2021/10/02 02:09:49;;;;;;;24.17;17.88;;;13.40;99.90;;;;;;5073595;28;20048;-71
2021/10/02 02:12:17;;;;;;;19.98;16.80;;;13.30;99.90;;;;;;5072420;28;20102;-70
2021/10/02 02:14:44;;;;;;;24.90;17.08;;;13.30;99.90;;;;;;5073745;28;20119;-71
2021/10/02 02:17:11;;;;;;;24.20;16.98;;;13.30;99.90;;;;;;5074160;28;20051;-71
2021/10/02 02:19:39;;;;;;;21.65;16.77;;;13.30;99.90;;;;;;5072483;28;20083;-71
2021/10/02 02:22:04;;;;;;;22.38;16.90;;;13.30;99.90;;;;;;5073663;28;20518;-71
2021/10/02 02:24:32;;;;;;;24.80;17.70;;;13.30;99.90;;;;;;5074186;28;20036;-71
2021/10/02 02:26:57;;;;;;;25.35;18.70;;;13.30;99.90;;;;;;5073957;28;20381;-71
2021/10/02 02:29:24;;;;;;;24.15;17.70;;;13.20;99.90;;;;;;5072041;28;20040;-71
2021/10/02 02:31:50;;;;;;;26.95;19.42;;;13.20;99.90;;;;;;5073914;28;20032;-70
2021/10/02 02:34:16;;;;;;;30.92;20.33;;;13.20;99.90;;;;;;5072138;28;20064;-70
2021/10/02 02:36:42;;;;;;;28.40;18.67;;;13.20;99.90;;;;;;5074066;28;20062;-71
2021/10/02 02:39:07;;;;;;;28.08;19.70;;;13.20;99.90;;;;;;5073171;28;20032;-71
2021/10/02 02:41:33;;;;;;;25.80;19.17;;;13.20;99.90;;;;;;5073738;28;20049;-70
2021/10/02 02:43:58;;;;;;;25.77;18.77;;;13.10;99.90;;;;;;5073622;28;20036;-71
2021/10/02 02:46:31;;;;;;;29.42;19.80;;;13.10;99.90;;;;;;5073456;28;20048;-70
2021/10/02 02:49:15;;;;;;;28.13;20.15;;;13.10;99.90;;;;;;5072000;28;20072;-71
2021/10/02 02:51:51;;;;;;;24.08;18.90;;;13.10;99.90;;;;;;5073510;28;20205;-70
2021/10/02 02:54:33;;;;;;;26.92;18.65;;;13.10;99.90;;;;;;5073432;28;20097;-70
2021/10/02 02:57:12;;;;;;;27.23;19.15;;;13.10;99.90;;;;;;5072282;28;20044;-71
2021/10/02 02:59:44;;;;;;;27.58;20.67;;;13.10;99.90;;;;;;5073036;28;20044;-71
2021/10/02 03:02:17;;;;;;;35.78;20.85;;;13.10;99.90;;;;;;5073174;28;20469;-71
2021/10/02 03:04:43;;;;;;;;;;;13.10;99.90;;;;;;5073945;28;20048;-71
2021/10/02 03:07:11;;;;;;;27.92;18.52;;;13.10;99.90;;;;;;5071683;28;20373;-71
2021/10/02 03:09:41;;;;;;;28.08;19.52;;;13.10;99.90;;;;;;5071453;28;20069;-70
2021/10/02 03:12:10;;;;;;;27.58;21.00;;;13.10;99.90;;;;;;5073695;28;20051;-70
2021/10/02 03:14:37;;;;;;;23.88;18.05;;;13.10;99.90;;;;;;5073102;28;20064;-70
2021/10/02 03:17:06;;;;;;;30.10;21.20;;;13.10;99.90;;;;;;5073032;28;20085;-70
2021/10/02 03:19:36;;;;;;;29.98;20.05;;;13.10;99.90;;;;;;5072630;28;20402;-70
2021/10/02 03:22:06;;;;;;;30.90;19.67;;;13.10;99.90;;;;;;5072838;28;20464;-70
2021/10/02 03:24:32;;;;;;;28.35;20.55;;;13.10;99.90;;;;;;5073914;28;20041;-70
2021/10/02 03:27:02;;;;;;;27.02;20.63;;;13.10;99.90;;;;;;5076788;28;20046;-70
2021/10/02 03:29:28;;;;;;;32.03;20.70;;;13.10;99.90;;;;;;5076685;28;20115;-71
2021/10/02 03:31:54;;;;;;;27.83;17.98;;;13.00;99.90;;;;;;5077046;28;20040;-71
2021/10/02 03:34:19;;;;;;;27.23;20.63;;;13.00;99.90;;;;;;5075618;28;20401;-71
2021/10/02 03:36:45;;;;;;;26.80;18.15;;;13.00;99.90;;;;;;5075819;28;20044;-71
2021/10/02 03:39:11;;;;;;;25.77;18.63;;;13.00;99.90;;;;;;5076373;28;20044;-71
2021/10/02 03:41:37;;;;;;;24.83;18.02;;;13.00;99.90;;;;;;5077188;28;20033;-71
2021/10/02 03:44:03;;;;;;;29.73;19.83;;;13.10;99.90;;;;;;5076638;28;20055;-71
2021/10/02 03:46:29;;;;;;;25.23;19.05;;;13.10;99.90;;;;;;5075262;28;20075;-71
2021/10/02 03:48:55;;;;;;;28.60;20.45;;;13.10;99.90;;;;;;5075062;28;20049;-71
2021/10/02 03:51:20;;;;;;;24.75;19.30;;;13.10;99.90;;;;;;5076947;28;20040;-71
2021/10/02 03:53:46;;;;;;;30.08;21.23;;;13.10;99.90;;;;;;5076637;28;20036;-71
2021/10/02 03:56:13;;;;;;;34.78;22.20;;;13.10;99.90;;;;;;5075561;28;20140;-71
2021/10/02 03:58:38;;;;;;;32.78;22.98;;;13.10;99.90;;;;;;5076503;28;20047;-71
2021/10/02 04:01:04;;;;;;;28.27;20.70;;;13.10;99.90;;;;;;5076310;28;20467;-70
2021/10/02 04:03:30;;;;;;;30.45;21.88;;;13.10;99.90;;;;;;5076482;28;20040;-70
2021/10/02 04:05:55;;;;;;;33.47;21.00;;;13.10;99.90;;;;;;5076332;28;20045;-70
2021/10/02 04:08:21;;;;;;;25.45;19.85;;;13.10;99.90;;;;;;5076455;28;20115;-70
2021/10/02 04:10:47;;;;;;;30.88;21.08;;;13.10;99.90;;;;;;5075982;28;20041;-70
2021/10/02 04:13:12;;;;;;;26.77;19.25;;;13.10;99.90;;;;;;5076270;28;20082;-70
2021/10/02 04:15:38;;;;;;;25.13;17.45;;;13.10;99.90;;;;;;5076313;28;20036;-70
2021/10/02 04:18:04;;;;;;;26.90;20.13;;;13.10;99.90;;;;;;5074774;28;20043;-70
2021/10/02 04:20:30;;;;;;;34.03;20.30;;;13.10;99.90;;;;;;5074553;28;20075;-70
2021/10/02 04:22:55;;;;;;;28.17;20.67;;;13.10;99.90;;;;;;5074688;28;20040;-70
2021/10/02 04:25:21;;;;;;;31.90;19.85;;;13.10;99.90;;;;;;5075001;28;20036;-70
2021/10/02 04:27:47;;;;;;;31.05;19.63;;;13.10;99.90;;;;;;5073697;28;20048;-70
2021/10/02 04:30:12;;;;;;;30.00;20.23;;;13.10;99.90;;;;;;5073626;28;20040;-70
2021/10/02 04:32:38;;;;;;;29.52;20.85;;;13.00;99.90;;;;;;5075081;28;20497;-70
2021/10/02 04:35:05;;;;;;;29.73;21.40;;;13.10;99.90;;;;;;5074288;28;20167;-70
2021/10/02 04:37:30;;;;;;;31.75;21.90;;;13.10;99.90;;;;;;5074510;28;20482;-70
2021/10/02 04:39:56;;;;;;;28.05;21.40;;;13.00;99.90;;;;;;5074162;28;20086;-70
2021/10/02 04:42:22;;;;;;;29.40;21.17;;;13.00;99.90;;;;;;5073376;28;20123;-70
2021/10/02 04:44:47;;;;;;;32.53;22.35;;;13.00;99.90;;;;;;5073181;28;20473;-70
2021/10/02 04:47:15;;;;;;;32.15;21.60;;;13.00;99.90;;;;;;5074945;28;20083;-70
2021/10/02 04:49:41;;;;;;;34.17;22.92;;;13.00;99.90;;;;;;5074134;28;20039;-70
2021/10/02 04:52:06;;;;;;;38.33;25.35;;;13.00;99.90;;;;;;5074158;28;20044;-70
2021/10/02 04:54:32;;;;;;;35.05;23.48;;;13.00;99.90;;;;;;5074853;28;20062;-70
2021/10/02 04:56:57;;;;;;;35.05;23.98;;;13.00;99.90;;;;;;5074551;28;20064;-70
2021/10/02 04:59:23;;;;;;;33.25;23.67;;;13.00;99.90;;;;;;5074150;28;20037;-70
2021/10/02 05:01:49;;;;;;;30.20;22.10;;;13.00;99.90;;;;;;5072796;28;20048;-70
2021/10/02 05:04:14;;;;;;;28.02;20.88;;;13.00;99.90;;;;;;5074582;28;20044;-70
2021/10/02 05:06:40;;;;;;;31.40;22.25;;;13.00;99.90;;;;;;5072908;28;20094;-70
2021/10/02 05:09:06;;;;;;;27.10;20.20;;;13.00;99.90;;;;;;5073659;28;20503;-70
2021/10/02 05:11:31;;;;;;;24.38;19.83;;;13.00;99.90;;;;;;5074272;28;20116;-70
2021/10/02 05:13:57;;;;;;;31.27;22.02;;;13.00;99.90;;;;;;5074340;28;20032;-70
2021/10/02 05:16:24;;;;;;;25.02;19.42;;;13.00;99.90;;;;;;5035894;28;1090879;-71
2021/10/02 05:18:50;;;;;;;27.45;20.98;;;13.00;99.90;;;;;;5074884;28;20177;-71
2021/10/02 05:21:16;;;;;;;26.58;20.63;;;13.00;99.90;;;;;;5075044;28;20524;-70
2021/10/02 05:23:41;;;;;;;29.25;21.33;;;13.00;99.90;;;;;;5073516;28;20037;-70
2021/10/02 05:26:09;;;;;;;22.63;18.02;;;13.00;99.90;;;;;;5074686;28;20074;-70
2021/10/02 05:28:35;;;;;;;23.17;19.10;;;13.00;99.90;;;;;;5056869;28;20454;-70
2021/10/02 05:31:00;;;;;;;26.38;18.98;;;13.00;99.90;;;;;;5073450;28;20127;-70
2021/10/02 05:33:26;;;;;;;32.60;21.55;;;13.00;99.90;;;;;;5074830;28;20041;-70
2021/10/02 05:35:53;;;;;;;33.45;22.30;;;13.00;99.90;;;;;;5074572;28;20064;-70
2021/10/02 05:38:20;;;;;;;30.40;19.65;;;13.00;99.90;;;;;;5073447;28;20395;-70
2021/10/02 05:40:49;;;;;;;28.42;20.73;;;13.00;99.90;;;;;;5074298;28;20080;-70
2021/10/02 05:43:15;;;;;;;31.75;22.15;;;13.00;99.90;;;;;;5074700;28;20052;-71
2021/10/02 05:45:41;;;;;;;29.55;21.38;;;13.00;99.90;;;;;;5073379;28;20376;-71
2021/10/02 05:48:06;;;;;;;30.08;20.85;;;13.00;99.90;;;;;;5072779;28;20040;-70
2021/10/02 05:50:32;;;;;;;26.58;19.95;;;13.00;99.90;;;;;;5073911;28;20071;-70
2021/10/02 05:52:58;;;;;;;31.33;21.80;;;13.00;99.90;;;;;;5074615;28;20485;-70
2021/10/02 05:55:23;;;;;;;30.00;21.25;;;13.00;99.90;;;;;;5074146;28;20172;-70
2021/10/02 05:57:49;;;;;;;26.25;19.40;;;13.00;99.90;;;;;;5074188;28;20159;-70
2021/10/02 06:00:15;;;;;;;31.83;21.77;;;13.00;99.90;;;;;;5072850;28;20048;-70
2021/10/02 06:02:40;;;;;;;35.90;22.52;;;13.00;99.90;;;;;;5073778;28;20051;-70
2021/10/02 06:05:06;;;;;;;33.80;22.15;;;13.00;99.90;;;;;;5072798;28;20041;-70
2021/10/02 06:07:32;;;;;;;30.20;21.45;;;13.00;99.90;;;;;;5072489;28;20170;-70
2021/10/02 06:09:57;;;;;;;31.65;22.63;;;13.00;99.90;;;;;;5072618;28;20109;-70
2021/10/02 06:12:23;;;;;;;29.10;20.65;;;13.00;99.90;;;;;;5072565;28;20040;-70
2021/10/02 06:14:48;;;;;;;30.52;22.77;;;13.00;99.90;;;;;;5072858;28;20039;-70
2021/10/02 06:17:14;;;;;;;32.20;22.20;;;13.00;99.90;;;;;;5073639;28;20062;-68
2021/10/02 06:19:40;;;;;;;28.38;20.77;;;13.00;99.90;;;;;;5073377;28;20044;-69
2021/10/02 06:22:05;;;;;;;30.42;22.85;;;13.00;99.90;;;;;;5075859;28;20037;-69
2021/10/02 06:24:31;;;;;;;30.75;22.23;;;13.10;99.90;;;;;;5094303;28;20349;-69
2021/10/02 06:26:57;;;;;;;32.80;21.58;;;13.10;99.90;;;;;;5075578;28;20399;-69
2021/10/02 06:29:22;;;;;;;29.30;20.80;;;13.10;99.90;;;;;;5093447;28;20036;-69
2021/10/02 06:31:49;;;;;;;27.60;20.20;;;13.10;99.90;;;;;;5093972;28;20112;-69
2021/10/02 06:34:15;;;;;;;28.00;20.23;;;13.10;99.90;;;;;;5092578;28;20093;-69
2021/10/02 06:36:43;;;;;;;31.20;21.90;;;13.10;99.90;;;;;;5092766;28;20036;-69
2021/10/02 06:39:08;;;;;;;31.17;21.15;;;13.10;99.90;;;;;;5092025;28;20052;-69
2021/10/02 06:41:34;;;;;;;25.30;19.45;;;13.10;99.90;;;;;;5093525;28;20043;-69
2021/10/02 06:44:00;;;;;;;30.15;21.85;;;13.10;99.90;;;;;;5093830;28;20047;-69
2021/10/02 06:46:26;;;;;;;27.48;19.52;;;13.10;99.90;;;;;;5093481;28;20510;-69
2021/10/02 06:48:51;;;;;;;22.92;17.75;;;13.10;99.90;;;;;;5093216;28;20119;-69
2021/10/02 06:51:17;;;;;;;26.40;17.90;;;13.10;99.90;;;;;;5093287;28;20040;-69
2021/10/02 06:53:43;;;;;;;25.52;17.55;;;13.10;99.90;;;;;;5093700;28;20082;-69
2021/10/02 06:56:08;;;;;;;22.83;16.88;;;13.10;99.90;;;;;;5093382;28;20047;-69
2021/10/02 06:58:34;;;;;;;21.13;16.08;;;13.10;99.90;;;;;;5093213;28;20036;-69
2021/10/02 07:00:59;;;;;;;21.50;16.35;;;13.00;99.90;;;;;;5093648;28;20071;-69
2021/10/02 07:03:25;;;;;;;25.52;17.35;;;13.00;99.90;;;;;;5092990;28;20205;-69
2021/10/02 07:05:51;;;;;;;23.33;17.40;;;13.00;99.90;;;;;;5091755;28;20075;-69
2021/10/02 07:08:16;;;;;;;21.08;15.98;;;13.00;99.90;;;;;;5093725;28;20110;-69
2021/10/02 07:10:42;;;;;;;20.40;14.65;;;13.00;99.90;;;;;;5093534;28;20047;-69
2021/10/02 07:13:08;;;;;;;19.17;14.57;;;13.00;99.90;;;;;;5093549;28;20484;-69
2021/10/02 07:15:33;;;;;;;24.55;14.70;;;13.00;99.90;;;;;;5093220;28;20040;-69
2021/10/02 07:17:59;;;;;;;18.48;13.45;;;13.00;99.90;;;;;;5092092;28;20047;-69
2021/10/02 07:20:27;;;;;;;23.42;14.63;;;13.00;99.90;;;;;;5092907;28;20489;-69
2021/10/02 07:22:53;;;;;;;18.27;13.20;;;13.10;99.90;;;;;;5092215;28;20036;-69
2021/10/02 07:25:22;;;;;;;19.40;14.50;;;13.10;99.90;;;;;;5092059;28;20072;-69
2021/10/02 07:27:48;;;;;;;21.40;15.85;;;13.30;99.90;;;;;;5091726;28;20411;-69
2021/10/02 07:30:14;;;;;;;25.70;18.75;;;13.50;99.90;;;;;;5091669;28;20051;-69
2021/10/02 07:32:39;;;;;;;21.98;16.05;;;13.70;99.90;;;;;;5092950;28;20028;-68
2021/10/02 07:35:07;;;;;;;22.48;15.73;;;13.80;99.90;;;;;;5093284;28;20486;-70
2021/10/02 07:37:33;;;;;;;21.50;15.57;;;13.90;99.90;;;;;;5093181;28;20455;-69
2021/10/02 07:39:58;;;;;;;23.67;16.90;;;13.90;99.90;;;;;;5091661;28;20085;-71
2021/10/02 07:42:25;;;;;;;23.08;16.50;;;13.80;99.90;;;;;;5091715;28;20733;-73
2021/10/02 07:44:57;;;;;;;24.98;17.45;;;13.80;99.90;;;;;;5092286;28;20044;-72
2021/10/02 07:47:24;;;;;;;26.95;18.83;;;13.80;99.90;;;;;;5092843;28;20389;-73
2021/10/02 07:49:51;;;;;;;29.08;19.77;;;13.80;99.90;;;;;;5092937;28;20428;-73
2021/10/02 07:52:20;;;;;;;29.85;22.00;;;13.80;99.90;;;;;;5091956;28;20380;-73
2021/10/02 07:54:50;;;;;;;35.42;21.17;;;13.80;99.90;;;;;;5093001;28;20040;-73
2021/10/02 07:57:18;;;;;;;29.85;21.15;;;13.80;99.90;;;;;;5092980;28;20496;-73
2021/10/02 07:59:45;;;;;;;36.60;22.33;;;13.80;99.90;;;;;;5092465;28;20051;-73
2021/10/02 08:02:16;;;;;;;30.48;22.92;;;13.80;99.90;;;;;;5093299;28;20064;-72
2021/10/02 08:04:43;;;;;;;34.55;23.48;;;13.80;99.90;;;;;;5092752;28;20459;-73
2021/10/02 08:07:09;;;;;;;34.60;23.83;;;13.80;99.90;;;;;;5091409;28;20040;-73
2021/10/02 08:09:35;;;;;;;31.98;23.42;;;13.80;99.90;;;;;;5091667;28;20133;-73
2021/10/02 08:12:01;;;;;;;35.83;24.33;;;13.90;99.90;;;;;;5096451;28;20508;-73
2021/10/02 08:14:26;;;;;;;34.03;24.17;;;13.90;99.90;;;;;;5095441;28;20388;-73
2021/10/02 08:16:53;;;;;;;35.85;25.02;;;14.00;99.90;;;;;;5096148;28;20500;-73
2021/10/02 08:19:20;;;;;;;36.28;25.00;;;14.00;99.90;;;;;;5094827;28;20097;-73
2021/10/02 08:21:47;;;;;;;37.17;24.33;;;14.10;99.90;;;;;;5094670;28;20046;-73
2021/10/02 08:24:14;;;;;;;36.03;23.83;;;14.00;99.90;;;;;;5096305;28;20040;-72
2021/10/02 08:26:41;;;;;;;35.35;22.25;;;14.10;99.90;;;;;;5096014;28;20089;-73
2021/10/02 08:29:07;;;;;;;33.80;22.63;;;14.10;99.90;;;;;;5095715;28;20143;-73
2021/10/02 08:31:33;;;;;;;36.10;23.10;;;14.10;99.90;;;;;;5095813;28;20528;-72
2021/10/02 08:33:59;;;;;;;36.35;23.95;;;14.10;99.90;;;;;;5096052;28;20357;-72
2021/10/02 08:36:25;;;;;;;32.30;23.95;;;14.00;99.90;;;;;;5095108;28;20085;-72
2021/10/02 08:38:50;;;;;;;37.25;24.77;;;14.10;99.90;;;;;;5095864;28;20039;-73
2021/10/02 08:41:19;;;;;;;37.85;23.80;;;14.10;99.90;;;;;;5095952;28;20039;-73
2021/10/02 08:43:49;;;;;;;34.70;23.33;;;14.20;99.90;;;;;;5096331;28;20055;-73
2021/10/02 08:46:16;;;;;;;33.88;22.77;;;14.40;99.90;;;;;;5095709;28;20082;-73
2021/10/02 08:48:46;;;;;;;32.28;21.70;;;14.60;99.90;;;;;;5095589;28;20120;-73
2021/10/02 08:51:12;;;;;;;35.85;23.30;;;14.90;99.90;;;;;;5095680;28;20497;-73
2021/10/02 08:53:39;;;;;;;29.50;21.35;;;15.00;99.90;;;;;;5094624;28;20072;-73
2021/10/02 08:56:05;;;;;;;32.25;22.27;;;14.90;99.90;;;;;;5095911;28;20048;-73
2021/10/02 08:58:31;;;;;;;29.00;20.85;;;14.90;99.90;;;;;;5095530;28;20036;-73
2021/10/02 09:00:59;;;;;;;31.42;21.52;;;14.80;99.90;;;;;;5095500;28;20036;-73
2021/10/02 09:03:26;;;;;;;32.70;21.15;;;14.90;99.90;;;;;;5095618;28;20051;-73
2021/10/02 09:05:52;;;;;;;26.77;20.27;;;14.80;99.90;;;;;;5094816;28;20043;-73
2021/10/02 09:08:17;;;;;;;29.83;20.63;;;14.80;99.90;;;;;;5095668;28;20504;-73
2021/10/02 09:10:43;;;;;;;27.73;20.02;;;14.80;99.90;;;;;;5092745;28;20040;-73
2021/10/02 09:13:09;;;;;;;28.60;19.02;;;14.90;99.90;;;;;;5093943;28;20046;-73
2021/10/02 09:15:35;;;;;;;28.85;18.80;;;15.00;99.90;;;;;;5095161;28;20042;-73
2021/10/02 09:18:02;;;;;;;28.63;19.02;;;15.10;99.90;;;;;;5095140;28;20047;-73
2021/10/02 09:20:27;;;;;;;22.38;15.77;;;15.10;99.90;;;;;;5094669;28;20036;-73
2021/10/02 09:23:04;;;;;;;21.25;16.02;;;15.10;99.90;;;;;;5093863;28;20089;-73
2021/10/02 09:25:33;;;;;;;22.02;15.77;;;15.10;99.90;;;;;;5095669;28;20044;-73
2021/10/02 09:28:08;;;;;;;21.13;13.98;;;15.20;99.90;;;;;;5095081;28;20448;-73
2021/10/02 09:30:35;;;;;;;21.35;13.95;;;15.30;99.90;;;;;;5093566;28;20039;-73
2021/10/02 09:33:13;;;;;;;19.70;12.55;;;15.40;99.90;;;;;;5094902;28;20081;-73
2021/10/02 09:35:42;;;;;;;18.05;12.45;;;15.50;99.90;;;;;;5076906;28;20097;-73
2021/10/02 09:38:11;;;;;;;17.35;12.43;;;15.50;99.90;;;;;;5094722;28;20555;-73
2021/10/02 09:40:37;;;;;;;18.02;13.80;;;15.60;99.90;;;;;;5075850;28;20044;-73
2021/10/02 09:43:04;;;;;;;21.63;14.40;;;15.70;99.90;;;;;;5074471;28;20041;-73
2021/10/02 09:45:38;;;;;;;20.50;12.68;;;15.80;99.90;;;;;;5074548;28;20114;-73
2021/10/02 09:48:11;;;;;;;18.42;12.73;;;15.80;99.90;;;;;;5072974;28;20051;-73
2021/10/02 09:50:46;;;;;;;22.38;13.25;;;15.90;99.90;;;;;;5074068;28;20470;-73
2021/10/02 09:53:14;;;;;;;17.10;11.73;;;15.90;99.90;;;;;;5074655;28;20063;-73
2021/10/02 09:55:44;;;;;;;15.90;12.27;;;15.90;99.90;;;;;;5074268;28;20044;-73
2021/10/02 09:58:28;;;;;;;16.65;12.82;;;15.80;99.90;;;;;;5074177;28;20040;-73
2021/10/02 10:00:55;;;;;;;21.77;13.30;;;15.70;99.90;;;;;;5072748;28;20044;-73
2021/10/02 10:03:21;;;;;;;18.63;13.23;;;15.70;99.90;;;;;;5074087;28;20115;-73
2021/10/02 10:05:50;;;;;;;18.90;13.00;;;15.70;99.90;;;;;;5074100;28;20036;-73
2021/10/02 10:08:26;;;;;;;20.08;12.88;;;15.60;99.90;;;;;;5072997;28;20048;-73
2021/10/02 10:11:03;;;;;;;17.67;12.65;;;15.60;99.90;;;;;;5073781;28;20500;-73
2021/10/02 10:13:29;;;;;;;21.27;13.73;;;15.50;99.90;;;;;;5072801;28;20161;-73
2021/10/02 10:15:55;;;;;;;22.73;14.00;;;15.50;99.90;;;;;;5056098;28;20127;-73
2021/10/02 10:18:34;;;;;;;17.40;12.63;;;15.50;99.90;;;;;;5073751;28;20040;-73
2021/10/02 10:21:03;;;;;;;17.00;13.25;;;15.40;99.90;;;;;;5074030;28;20603;-73
2021/10/02 10:23:45;;;;;;;19.55;13.68;;;15.40;99.90;;;;;;5073877;28;20036;-73
2021/10/02 10:26:16;;;;;;;21.27;12.07;;;15.50;99.90;;;;;;5073833;28;20080;-73
2021/10/02 10:28:45;;;;;;;20.48;12.93;;;15.60;99.90;;;;;;5073385;28;20040;-73
2021/10/02 10:31:15;;;;;;;17.50;11.68;;;15.70;99.90;;;;;;5073670;28;20513;-73
2021/10/02 10:33:43;;;;;;;17.08;10.48;;;15.80;99.90;;;;;;5073183;28;20119;-73
2021/10/02 10:36:12;;;;;;;19.00;10.73;;;15.90;99.90;;;;;;5073457;28;20036;-73
2021/10/02 10:38:39;;;;;;;14.95;10.77;;;16.10;99.90;;;;;;5073055;28;20044;-73
2021/10/02 10:41:05;;;;;;;18.02;12.73;;;16.20;99.90;;;;;;5073557;28;20085;-73
2021/10/02 10:43:33;;;;;;;22.00;13.02;;;16.10;99.90;;;;;;5073917;28;20076;-73
2021/10/02 10:46:06;;;;;;;16.50;11.75;;;16.10;99.90;;;;;;5073633;28;20074;-73
2021/10/02 10:48:32;;;;;;;18.00;11.68;;;16.10;99.90;;;;;;5072189;28;20040;-73
2021/10/02 10:51:11;;;;;;;17.05;11.68;;;16.10;99.90;;;;;;5072043;28;20048;-73
2021/10/02 10:53:39;;;;;;;19.48;11.65;;;16.00;99.90;;;;;;5072488;28;20503;-73
2021/10/02 10:56:07;;;;;;;18.40;12.40;;;16.00;99.90;;;;;;5073668;28;20200;-72
2021/10/02 10:58:33;;;;;;;17.20;11.02;;;16.00;99.90;;;;;;5073414;28;20469;-73
2021/10/02 11:01:02;;;;;;;15.60;11.30;;;15.90;99.90;;;;;;5073247;28;20040;-73
2021/10/02 11:03:53;;;;;;;13.38;9.15;;;16.00;99.90;;;;;;5073593;28;20067;-73
2021/10/02 11:06:19;;;;;;;15.10;8.23;;;16.00;99.90;;;;;;5072752;28;20048;-73
2021/10/02 11:09:07;;;;;;;14.35;9.52;;;16.10;99.90;;;;;;5072759;28;20524;-73
2021/10/02 11:11:51;;;;;;;15.07;8.65;;;16.10;99.90;;;;;;5073307;28;20428;-73
2021/10/02 11:14:24;;;;;;;15.90;8.40;;;16.10;99.90;;;;;;5073067;28;20051;-73
2021/10/02 11:17:00;;;;;;;15.93;8.48;;;16.10;99.90;;;;;;5071752;28;20124;-73
2021/10/02 11:19:27;;;;;;;13.27;8.02;;;16.10;99.90;;;;;;5071565;28;20531;-73
2021/10/02 11:22:10;;;;;;;14.25;7.55;;;16.20;99.90;;;;;;5071722;28;20051;-72
2021/10/02 11:24:40;;;;;;;;;;;16.20;99.90;;;;;;5072094;28;20106;-73
2021/10/02 11:27:07;;;;;;;10.07;5.47;;;16.10;99.90;;;;;;5072830;28;19920;-72
2021/10/02 11:29:38;;;;;;;9.55;4.00;;;16.20;99.90;;;;;;5072621;28;20036;-73
2021/10/02 11:32:20;;;;;;;8.20;4.18;;;16.20;99.90;;;;;;5072849;28;20028;-73
2021/10/02 11:35:07;;;;;;;7.57;3.50;;;16.20;99.90;;;;;;5072828;28;20086;-73
2021/10/02 11:38:05;;;;;;;5.55;2.90;;;16.20;99.80;;;;;;5072805;28;20048;-73
2021/10/02 11:40:57;;;;;;;9.43;3.20;;;16.10;99.90;;;;;;5072460;28;20436;-73
2021/10/02 11:43:24;;;;;;;6.70;3.42;;;16.10;99.90;;;;;;5072281;28;20501;-73
2021/10/02 11:45:50;;;;;;;5.28;3.30;;;16.20;99.90;;;;;;5074838;28;20040;-73
2021/10/02 11:48:30;;;;;;;6.50;3.42;;;16.20;99.90;;;;;;5076799;28;20044;-73
2021/10/02 11:51:23;;;;;;;9.10;3.30;;;16.20;99.90;;;;;;5076600;28;20040;-73
2021/10/02 11:53:53;;;;;;;7.07;3.30;;;16.20;99.90;;;;;;5076753;28;20416;-73
2021/10/02 11:56:29;;;;;;;6.07;3.20;;;16.20;99.90;;;;;;5076618;28;20148;-73
2021/10/02 11:58:57;;;;;;;10.43;3.72;;;16.20;99.90;;;;;;5076538;28;20042;-73
2021/10/02 12:01:31;;;;;;;6.47;3.00;;;16.20;99.90;;;;;;5076439;28;20043;-73
2021/10/02 12:03:58;;;;;;;5.82;2.65;;;16.10;99.90;;;;;;5076513;28;20036;-72
2021/10/02 12:06:24;;;;;;;6.90;2.55;;;16.20;99.90;;;;;;5075311;28;20115;-72
2021/10/02 12:08:50;;;;;;;13.25;3.45;;;16.10;99.90;;;;;;5076353;28;20116;-73
2021/10/02 12:11:16;;;;;;;8.38;3.03;;;16.10;99.90;;;;;;5074919;28;20445;-73
2021/10/02 12:13:49;;;;;;;7.38;2.63;;;16.10;99.90;;;;;;5076450;28;20044;-73
2021/10/02 12:16:29;;;;;;;6.43;3.20;;;16.10;99.90;;;;;;5075085;28;20048;-73
2021/10/02 12:19:10;;;;;;;3.90;2.80;;;16.10;99.90;;;;;;5076090;28;20079;-72
2021/10/02 12:22:03;;;;;;;5.50;2.80;;;16.10;99.90;;;;;;5076133;28;20464;-72
2021/10/02 12:24:37;;;;;;;5.68;2.92;;;16.10;99.90;;;;;;5076183;28;20435;-73
2021/10/02 12:27:10;;;;;;;6.10;2.70;;;16.10;99.90;;;;;;5076139;28;20052;-73
2021/10/02 12:29:47;;;;;;;11.32;3.17;;;16.10;99.90;;;;;;5076116;28;20145;-73
2021/10/02 12:32:19;;;;;;;4.47;2.60;;;16.10;99.90;;;;;;5076123;28;20047;-73
2021/10/02 12:34:54;;;;;;;5.13;2.47;;;16.10;99.90;;;;;;5075847;28;20048;-73
2021/10/02 12:37:26;;;;;;;4.93;2.97;;;16.10;99.90;;;;;;5074527;28;20500;-73
2021/10/02 12:40:09;;;;;;;6.75;2.97;;;16.20;99.90;;;;;;5075297;28;20416;-72
2021/10/02 12:42:38;;;;;;;7.88;2.75;;;16.20;99.90;;;;;;5075540;28;20047;-73
2021/10/02 12:45:11;;;;;;;7.03;2.97;;;16.20;99.90;;;;;;5075074;28;20510;-73
2021/10/02 12:47:40;;;;;;;;;;;16.10;99.90;;;;;;5076636;28;20055;-73
2021/10/02 12:50:11;;;;;;;8.07;2.90;;;16.00;99.90;;;;;;5075557;28;20218;-73
2021/10/02 12:52:38;;;;;;;6.80;2.85;;;16.10;99.90;;;;;;5074354;28;20044;-73
2021/10/02 12:55:13;;;;;;;5.28;2.70;;;16.10;99.90;;;;;;5075402;28;20127;-73
2021/10/02 12:57:40;;;;;;;4.88;2.78;;;16.10;99.90;;;;;;5075342;28;20048;-73
2021/10/02 13:00:09;;;;;;;5.88;3.13;;;16.10;99.90;;;;;;5074939;28;20047;-73
2021/10/02 13:02:47;;;;;;;6.78;2.97;;;16.20;99.90;;;;;;5075276;28;20435;-72
2021/10/02 13:05:22;;;;;;;7.18;2.88;;;16.10;99.90;;;;;;5075318;28;20046;-73
2021/10/02 13:07:57;;;;;;;6.40;3.28;;;16.10;99.90;;;;;;5075243;28;20048;-73
2021/10/02 13:10:36;;;;;;;8.90;2.85;;;16.10;99.90;;;;;;5075079;28;20056;-71
2021/10/02 13:13:11;;;;;;;9.63;3.15;;;16.30;99.90;;;;;;5075392;28;20045;-72
2021/10/02 13:15:41;;;;;;;9.40;3.92;;;16.40;99.90;;;;;;5075460;28;20072;-70
2021/10/02 13:18:18;;;;;;;3.85;2.55;;;16.50;99.90;;;;;;5075048;28;20360;-70
2021/10/02 13:20:47;;;;;;;6.45;3.10;;;16.70;99.90;;;;;;5074711;28;20511;-69
2021/10/02 13:23:15;;;;;;;7.68;3.20;;;16.70;99.90;;;;;;5073505;28;20050;-69
2021/10/02 13:25:55;;;;;;;6.53;3.17;;;16.90;99.90;;;;;;5074849;28;20048;-69
2021/10/02 13:28:34;;;;;;;4.68;2.90;;;16.80;99.90;;;;;;5073841;28;20405;-69
2021/10/02 13:31:15;;;;;;;8.25;3.00;;;16.80;99.90;;;;;;5073387;28;20036;-70
2021/10/02 13:33:44;;;;;;;7.72;3.20;;;16.90;99.90;;;;;;5073544;28;20044;-69
2021/10/02 13:36:20;;;;;;;8.02;3.50;;;16.90;99.90;;;;;;5077561;28;20036;-69